createdAt,value
2022-08-17T00:00:12.816Z,3.88
2022-08-17T00:02:41.134Z,3.88
2022-08-17T00:04:50.561Z,3.50
2022-08-17T00:06:55.579Z,4.55
2022-08-17T00:09:02.237Z,4.40
2022-08-17T00:11:08.909Z,4.80
2022-08-17T00:13:16.581Z,3.90
2022-08-17T00:15:22.856Z,4.68
2022-08-17T00:17:28.008Z,4.45
2022-08-17T00:22:31.501Z,3.20
2022-08-17T00:24:07.823Z,4.10
2022-08-17T00:28:19.554Z,4.93
2022-08-17T00:30:25.830Z,4.05
2022-08-17T00:33:13.838Z,3.90
2022-08-17T00:34:58.123Z,3.67
2022-08-17T00:37:02.945Z,3.67
2022-08-17T00:39:07.972Z,4.20
2022-08-17T00:41:14.919Z,4.07
2022-08-17T00:43:28.677Z,3.60
2022-08-17T00:45:33.501Z,3.97
2022-08-17T00:47:38.495Z,4.03
2022-08-17T00:49:43.398Z,3.95
2022-08-17T00:51:55.570Z,4.95
2022-08-17T00:54:11.891Z,4.35
2022-08-17T00:56:21.440Z,4.30
2022-08-17T00:58:36.099Z,5.20
2022-08-17T01:00:45.925Z,4.97
2022-08-17T01:02:51.638Z,4.47
2022-08-17T01:04:57.287Z,4.70
2022-08-17T01:07:07.165Z,5.18
2022-08-17T01:09:12.136Z,4.57
2022-08-17T01:11:17.323Z,4.40
2022-08-17T01:15:27.336Z,5.03
2022-08-17T01:17:32.200Z,5.30
2022-08-17T01:19:39.440Z,5.22
2022-08-17T01:21:49.810Z,4.75
2022-08-17T01:23:57.382Z,5.03
2022-08-17T01:26:06.483Z,5.00
2022-08-17T01:28:11.449Z,4.50
2022-08-17T01:30:58.562Z,5.88
2022-08-17T01:33:01.478Z,5.78
2022-08-17T01:35:07.915Z,5.25
2022-08-17T01:37:13.341Z,5.50
2022-08-17T01:39:34.655Z,4.68
2022-08-17T01:41:41.081Z,5.28
2022-08-17T01:43:48.934Z,4.75
2022-08-17T01:46:03.833Z,5.13
2022-08-17T01:48:09.432Z,5.28
2022-08-17T01:50:17.469Z,4.35
2022-08-17T01:52:23.920Z,4.22
2022-08-17T01:54:31.397Z,4.53
2022-08-17T01:56:38.243Z,4.80
2022-08-17T01:58:45.777Z,4.55
2022-08-17T02:01:00.939Z,4.50
2022-08-17T02:03:08.489Z,4.50
2022-08-17T02:05:13.416Z,4.68
2022-08-17T02:07:18.266Z,5.38
2022-08-17T02:09:34.071Z,5.05
2022-08-17T02:11:40.559Z,4.90
2022-08-17T02:13:45.865Z,5.00
2022-08-17T02:15:50.954Z,4.97
2022-08-17T02:17:56.476Z,4.70
2022-08-17T02:20:01.469Z,4.88
2022-08-17T02:22:06.529Z,4.50
2022-08-17T02:24:14.985Z,4.70
2022-08-17T02:26:25.601Z,4.70
2022-08-17T02:28:32.189Z,4.80
2022-08-17T02:31:00.007Z,5.13
2022-08-17T02:33:04.328Z,5.20
2022-08-17T02:35:13.475Z,4.35
2022-08-17T02:37:19.818Z,4.50
2022-08-17T02:39:24.864Z,4.50
2022-08-17T02:41:32.393Z,5.07
2022-08-17T02:43:37.553Z,5.35
2022-08-17T02:47:47.695Z,5.10
2022-08-17T02:49:54.338Z,4.75
2022-08-17T02:52:01.169Z,5.22
2022-08-17T02:54:40.415Z,5.95
2022-08-17T02:56:33.471Z,4.90
2022-08-17T02:58:38.394Z,5.05
2022-08-17T03:00:47.249Z,4.93
2022-08-17T03:02:53.170Z,5.57
2022-08-17T03:04:57.993Z,5.63
2022-08-17T03:07:02.844Z,5.03
2022-08-17T03:09:07.788Z,5.25
2022-08-17T03:11:13.050Z,5.57
2022-08-17T03:13:20.863Z,5.85
2022-08-17T03:15:27.906Z,5.50
2022-08-17T03:17:32.829Z,5.38
2022-08-17T03:19:37.673Z,4.88
2022-08-17T03:21:54.851Z,5.13
2022-08-17T03:24:00.445Z,5.32
2022-08-17T03:26:05.301Z,5.45
2022-08-17T03:28:17.259Z,5.07
2022-08-17T03:30:25.406Z,5.38
2022-08-17T03:32:30.303Z,5.03
2022-08-17T03:34:35.193Z,4.68
2022-08-17T03:36:40.084Z,4.60
2022-08-17T03:38:45.102Z,5.35
2022-08-17T03:40:57.564Z,4.97
2022-08-17T03:43:09.107Z,5.95
2022-08-17T03:45:17.063Z,5.30
2022-08-17T03:47:38.077Z,5.65
2022-08-17T03:49:58.602Z,5.57
2022-08-17T03:52:15.855Z,5.43
2022-08-17T03:54:33.201Z,4.95
2022-08-17T03:56:47.184Z,5.43
2022-08-17T03:58:53.042Z,5.18
2022-08-17T04:00:58.769Z,5.63
2022-08-17T04:03:06.919Z,6.88
2022-08-17T04:05:15.069Z,6.38
2022-08-17T04:07:20.579Z,5.38
2022-08-17T04:09:25.456Z,4.78
2022-08-17T04:11:30.503Z,5.63
2022-08-17T04:13:35.442Z,5.80
2022-08-17T04:15:40.220Z,5.22
2022-08-17T04:17:45.911Z,4.90
2022-08-17T04:19:53.393Z,5.10
2022-08-17T04:21:58.313Z,5.32
2022-08-17T04:24:03.641Z,4.95
2022-08-17T04:26:08.927Z,5.05
2022-08-17T04:30:21.430Z,6.57
2022-08-17T04:33:03.691Z,6.45
2022-08-17T04:34:53.893Z,6.82
2022-08-17T04:36:58.729Z,6.25
2022-08-17T04:39:04.558Z,6.18
2022-08-17T04:41:28.642Z,6.45
2022-08-17T04:43:35.634Z,6.57
2022-08-17T04:45:55.422Z,5.53
2022-08-17T04:48:01.336Z,5.90
2022-08-17T04:50:10.126Z,5.20
2022-08-17T04:52:29.875Z,5.22
2022-08-17T04:54:40.244Z,6.78
2022-08-17T04:56:45.850Z,6.47
2022-08-17T04:58:52.752Z,6.07
2022-08-17T05:00:57.662Z,7.40
2022-08-17T05:03:02.941Z,6.78
2022-08-17T05:05:11.537Z,6.65
2022-08-17T05:07:23.079Z,7.35
2022-08-17T05:09:29.120Z,6.65
2022-08-17T05:11:33.986Z,6.65
2022-08-17T05:13:38.938Z,6.63
2022-08-17T05:15:45.336Z,6.88
2022-08-17T05:17:52.851Z,8.45
2022-08-17T05:19:57.677Z,8.13
2022-08-17T05:22:07.804Z,7.90
2022-08-17T05:24:38.671Z,8.10
2022-08-17T05:26:38.093Z,7.95
2022-08-17T05:28:43.380Z,8.00
2022-08-17T05:30:51.651Z,8.10
2022-08-17T05:32:58.973Z,7.55
2022-08-17T05:35:03.937Z,7.85
2022-08-17T05:37:11.367Z,7.22
2022-08-17T05:39:17.510Z,8.00
2022-08-17T05:41:22.387Z,7.63
2022-08-17T05:43:29.804Z,7.38
2022-08-17T05:45:55.448Z,7.32
2022-08-17T05:48:00.851Z,7.28
2022-08-17T05:50:09.552Z,6.00
2022-08-17T05:52:25.654Z,6.80
2022-08-17T05:54:41.828Z,6.10
2022-08-17T05:57:16.677Z,6.25
2022-08-17T05:59:36.506Z,6.65
2022-08-17T06:01:50.851Z,5.97
2022-08-17T06:04:03.766Z,6.53
2022-08-17T06:06:31.606Z,5.57
2022-08-17T06:08:51.747Z,5.45
2022-08-17T06:11:05.508Z,6.10
2022-08-17T06:13:20.489Z,5.85
2022-08-17T06:15:33.773Z,6.47
2022-08-17T06:17:39.836Z,5.40
2022-08-17T06:19:48.667Z,5.45
2022-08-17T06:21:56.584Z,4.80
2022-08-17T06:24:08.705Z,4.95
2022-08-17T06:26:19.255Z,5.07
2022-08-17T06:28:33.113Z,4.68
2022-08-17T06:31:00.241Z,4.50
2022-08-17T06:33:09.675Z,4.45
2022-08-17T06:35:17.132Z,4.85
2022-08-17T06:37:48.980Z,4.10
2022-08-17T06:40:03.801Z,4.38
2022-08-17T06:43:02.398Z,3.97
2022-08-17T06:44:51.773Z,4.50
2022-08-17T06:47:09.077Z,4.30
2022-08-17T06:49:26.027Z,4.10
2022-08-17T06:51:35.947Z,4.03
2022-08-17T06:53:45.938Z,4.68
2022-08-17T06:56:01.428Z,5.40
2022-08-17T06:58:16.482Z,3.83
2022-08-17T07:00:25.037Z,4.28
2022-08-17T07:02:52.382Z,4.30
2022-08-17T07:04:58.259Z,3.80
2022-08-17T07:07:26.842Z,4.40
2022-08-17T07:09:37.229Z,3.65
2022-08-17T07:11:53.223Z,4.07
2022-08-17T07:14:13.951Z,4.15
2022-08-17T07:16:27.647Z,4.88
2022-08-17T07:18:34.777Z,4.60
2022-08-17T07:20:45.977Z,3.97
2022-08-17T07:22:59.661Z,3.85
2022-08-17T07:25:08.541Z,3.78
2022-08-17T07:27:21.381Z,3.67
2022-08-17T07:29:27.151Z,3.97
2022-08-17T07:31:34.082Z,3.38
2022-08-17T07:33:41.085Z,3.00
2022-08-17T07:35:48.509Z,3.28
2022-08-17T07:38:07.241Z,3.33
2022-08-17T07:40:35.997Z,3.22
2022-08-17T07:42:46.703Z,4.25
2022-08-17T07:44:58.071Z,4.00
2022-08-17T07:47:15.431Z,3.60
2022-08-17T07:49:37.187Z,3.85
2022-08-17T07:51:55.741Z,3.67
2022-08-17T07:54:14.578Z,3.40
2022-08-17T07:56:40.534Z,3.20
2022-08-17T07:58:49.068Z,3.00
2022-08-17T08:01:09.915Z,3.70
2022-08-17T08:03:18.942Z,3.42
2022-08-17T08:05:31.715Z,4.13
2022-08-17T08:07:56.430Z,3.35
2022-08-17T08:10:12.923Z,3.38
2022-08-17T08:12:33.417Z,3.17
2022-08-17T08:14:43.653Z,2.65
2022-08-17T08:17:00.122Z,3.50
2022-08-17T08:19:05.329Z,3.05
2022-08-17T08:21:15.463Z,3.50
2022-08-17T08:23:29.649Z,3.15
2022-08-17T08:25:53.591Z,2.50
2022-08-17T08:28:10.380Z,2.63
2022-08-17T08:30:21.490Z,3.25
2022-08-17T08:32:42.953Z,2.65
2022-08-17T08:35:03.383Z,3.35
2022-08-17T08:37:30.126Z,2.90
2022-08-17T08:39:46.632Z,3.25
2022-08-17T08:42:01.895Z,3.80
2022-08-17T08:44:17.215Z,2.67
2022-08-17T08:46:35.606Z,3.28
2022-08-17T08:49:14.536Z,2.97
2022-08-17T08:51:29.633Z,3.08
2022-08-17T08:53:43.324Z,2.50
2022-08-17T08:55:55.846Z,3.13
2022-08-17T08:58:05.881Z,2.58
2022-08-17T09:00:16.588Z,2.40
2022-08-17T09:02:37.797Z,2.30
2022-08-17T09:05:13.959Z,2.15
2022-08-17T09:07:31.538Z,2.45
2022-08-17T09:09:48.263Z,2.40
2022-08-17T09:12:04.111Z,2.63
2022-08-17T09:14:21.581Z,2.50
2022-08-17T09:16:37.001Z,2.92
2022-08-17T09:19:03.606Z,2.50
2022-08-17T09:21:19.491Z,2.13
2022-08-17T09:23:34.461Z,2.25
2022-08-17T09:25:50.535Z,1.70
2022-08-17T09:28:00.668Z,2.00
2022-08-17T09:30:12.017Z,2.08
2022-08-17T09:32:22.273Z,1.75
2022-08-17T09:34:38.325Z,2.53
2022-08-17T09:36:48.191Z,1.75
2022-08-17T09:39:02.760Z,2.17
2022-08-17T09:41:15.139Z,1.88
2022-08-17T09:43:28.932Z,2.00
2022-08-17T09:45:37.531Z,1.60
2022-08-17T09:47:51.137Z,1.60
2022-08-17T09:50:04.565Z,1.90
2022-08-17T09:52:18.745Z,2.30
2022-08-17T09:54:40.383Z,1.90
2022-08-17T09:57:25.709Z,1.60
2022-08-17T09:59:41.898Z,2.42
2022-08-17T10:01:54.513Z,2.28
2022-08-17T10:04:14.299Z,2.30
2022-08-17T10:06:27.411Z,2.28
2022-08-17T10:08:42.526Z,2.22
2022-08-17T10:10:58.931Z,1.58
2022-08-17T10:13:13.835Z,1.50
2022-08-17T10:15:27.586Z,2.10
2022-08-17T10:17:39.315Z,2.15
2022-08-17T10:19:54.412Z,2.10
2022-08-17T10:22:34.665Z,2.08
2022-08-17T10:25:21.174Z,2.10
2022-08-17T10:27:28.114Z,2.60
2022-08-17T10:29:49.152Z,2.78
2022-08-17T10:32:00.708Z,1.92
2022-08-17T10:34:38.806Z,2.22
2022-08-17T10:36:57.578Z,2.42
2022-08-17T10:39:13.869Z,2.10
2022-08-17T10:41:29.504Z,2.15
2022-08-17T10:44:37.560Z,2.08
2022-08-17T10:46:31.371Z,2.30
2022-08-17T10:48:39.348Z,2.47
2022-08-17T10:51:01.152Z,2.60
2022-08-17T10:53:05.979Z,2.72
2022-08-17T10:55:17.959Z,2.35
2022-08-17T10:57:41.962Z,3.05
2022-08-17T10:59:56.385Z,1.73
2022-08-17T11:02:17.016Z,2.00
2022-08-17T11:04:33.089Z,2.47
2022-08-17T11:06:48.247Z,1.88
2022-08-17T11:09:26.511Z,1.70
2022-08-17T11:12:02.680Z,1.98
2022-08-17T11:19:15.003Z,2.38
2022-08-17T11:21:42.440Z,1.95
2022-08-17T11:24:03.564Z,2.78
2022-08-17T11:26:26.312Z,2.03
2022-08-17T11:28:37.338Z,1.83
2022-08-17T11:30:49.857Z,1.73
2022-08-17T11:32:57.642Z,1.80
2022-08-17T11:35:29.720Z,2.33
2022-08-17T11:37:52.276Z,2.03
2022-08-17T11:40:18.021Z,1.70
2022-08-17T11:44:53.232Z,2.03
2022-08-17T11:47:24.310Z,2.00
2022-08-17T11:49:52.180Z,1.98
2022-08-17T11:52:13.263Z,1.90
2022-08-17T11:54:40.340Z,2.17
2022-08-17T11:56:49.186Z,1.90
2022-08-17T11:58:54.191Z,2.55
2022-08-17T12:01:03.973Z,2.28
2022-08-17T12:03:28.220Z,1.80
2022-08-17T12:05:37.804Z,1.90
2022-08-17T12:07:47.901Z,1.63
2022-08-17T12:09:57.319Z,1.80
2022-08-17T12:12:12.347Z,1.60
2022-08-17T12:14:39.921Z,2.13
2022-08-17T12:17:01.739Z,1.60
2022-08-17T12:19:08.317Z,2.10
2022-08-17T12:21:31.073Z,2.10
2022-08-17T12:23:44.470Z,1.60
2022-08-17T12:25:56.897Z,2.05
2022-08-17T12:28:06.666Z,1.88
2022-08-17T12:30:16.811Z,1.88
2022-08-17T12:32:25.311Z,1.70
2022-08-17T12:34:44.142Z,1.83
2022-08-17T12:36:53.012Z,1.83
2022-08-17T12:39:13.074Z,1.70
2022-08-17T12:41:34.338Z,1.85
2022-08-17T12:43:39.179Z,1.60
2022-08-17T12:45:44.308Z,1.77
2022-08-17T12:48:07.118Z,2.10
2022-08-17T12:50:29.238Z,1.83
2022-08-17T12:52:36.117Z,2.10
2022-08-17T12:54:50.848Z,1.98
2022-08-17T12:56:56.137Z,1.92
2022-08-17T12:59:02.345Z,1.90
2022-08-17T13:01:11.622Z,1.92
2022-08-17T13:03:21.924Z,1.63
2022-08-17T13:05:31.647Z,1.95
2022-08-17T13:07:39.254Z,2.00
2022-08-17T13:09:53.714Z,2.22
2022-08-17T13:12:01.801Z,1.97
2022-08-17T13:14:13.132Z,1.90
2022-08-17T13:16:20.961Z,2.00
2022-08-17T13:18:45.214Z,2.30
2022-08-17T13:20:54.559Z,1.95
2022-08-17T13:23:01.437Z,2.10
2022-08-17T13:25:09.558Z,2.40
2022-08-17T13:27:18.941Z,2.40
2022-08-17T13:29:29.795Z,2.20
2022-08-17T13:31:52.968Z,2.47
2022-08-17T13:34:22.140Z,2.03
2022-08-17T13:36:33.676Z,2.83
2022-08-17T13:38:45.720Z,2.10
2022-08-17T13:40:54.324Z,2.20
2022-08-17T13:43:00.212Z,2.67
2022-08-17T13:45:32.349Z,2.28
2022-08-17T13:47:31.036Z,2.33
2022-08-17T13:49:48.384Z,2.40
2022-08-17T13:52:01.845Z,2.28
2022-08-17T13:54:11.382Z,1.98
2022-08-17T13:56:37.969Z,2.22
2022-08-17T13:58:55.794Z,2.40
2022-08-17T14:01:01.759Z,2.40
2022-08-17T14:03:08.401Z,2.45
2022-08-17T14:05:15.911Z,2.30
2022-08-17T14:07:30.252Z,2.35
2022-08-17T14:09:37.730Z,2.55
2022-08-17T14:11:42.807Z,2.60
2022-08-17T14:13:47.945Z,2.30
2022-08-17T14:15:56.282Z,2.50
2022-08-17T14:18:01.740Z,2.08
2022-08-17T14:20:09.530Z,2.30
2022-08-17T14:22:23.803Z,2.42
2022-08-17T14:24:31.634Z,2.20
2022-08-17T14:26:36.475Z,2.40
2022-08-17T14:28:49.407Z,2.28
2022-08-17T14:30:59.636Z,2.53
2022-08-17T14:33:06.017Z,2.17
2022-08-17T14:35:14.733Z,2.20
2022-08-17T14:37:26.444Z,2.40
2022-08-17T14:39:32.931Z,2.47
2022-08-17T14:41:38.227Z,2.53
2022-08-17T14:43:43.076Z,2.47
2022-08-17T14:45:48.038Z,3.08
2022-08-17T14:47:52.919Z,2.65
2022-08-17T14:50:02.173Z,2.83
2022-08-17T14:52:07.423Z,2.60
2022-08-17T14:54:29.401Z,3.00
2022-08-17T14:56:38.861Z,2.80
2022-08-17T14:58:43.989Z,2.75
2022-08-17T15:00:51.059Z,2.42
2022-08-17T15:02:58.592Z,2.63
2022-08-17T15:05:05.309Z,2.88
2022-08-17T15:07:10.937Z,2.38
2022-08-17T15:09:19.450Z,2.63
2022-08-17T15:11:24.664Z,2.42
2022-08-17T15:13:29.993Z,2.67
2022-08-17T15:15:34.960Z,2.58
2022-08-17T15:17:44.982Z,3.70
2022-08-17T15:19:50.722Z,2.63
2022-08-17T15:21:55.721Z,2.50
2022-08-17T15:26:07.992Z,2.55
2022-08-17T15:28:13.188Z,3.63
2022-08-17T15:30:18.226Z,2.53
2022-08-17T15:32:30.236Z,2.50
2022-08-17T15:34:35.213Z,2.53
2022-08-17T15:36:45.491Z,2.20
2022-08-17T15:38:54.552Z,2.28
2022-08-17T15:41:00.398Z,2.40
2022-08-17T15:43:11.746Z,2.40
2022-08-17T15:45:17.079Z,3.00
2022-08-17T15:47:21.891Z,2.25
2022-08-17T15:51:33.743Z,2.42
2022-08-17T15:53:40.137Z,2.03
2022-08-17T15:55:45.032Z,2.35
2022-08-17T15:57:50.116Z,1.90
2022-08-17T15:59:59.635Z,1.80
2022-08-17T16:03:14.921Z,2.35
2022-08-17T16:06:37.403Z,2.47
2022-08-17T16:08:44.235Z,2.28
2022-08-17T16:10:49.877Z,2.58
2022-08-17T16:12:55.598Z,2.88
2022-08-17T16:15:03.663Z,2.00
2022-08-17T16:17:39.085Z,2.58
2022-08-17T16:19:35.902Z,2.45
2022-08-17T16:21:42.633Z,2.20
2022-08-17T16:23:48.219Z,2.50
2022-08-17T16:25:54.389Z,2.40
2022-08-17T16:27:59.721Z,2.50
2022-08-17T16:30:08.264Z,2.22
2022-08-17T16:32:16.205Z,2.58
2022-08-17T16:34:21.588Z,2.35
2022-08-17T16:36:26.487Z,2.58
2022-08-17T16:40:36.494Z,2.45
2022-08-17T16:42:41.702Z,2.55
2022-08-17T16:44:46.646Z,2.53
2022-08-17T16:49:00.697Z,2.50
2022-08-17T16:51:05.517Z,2.30
2022-08-17T16:55:16.349Z,2.30
2022-08-17T16:57:21.292Z,2.42
2022-08-17T17:01:44.498Z,2.35
2022-08-17T17:03:58.117Z,2.28
2022-08-17T17:06:13.682Z,2.38
2022-08-17T17:08:28.019Z,2.63
2022-08-17T17:10:40.293Z,2.50
2022-08-17T17:13:01.019Z,2.45
2022-08-17T17:15:09.750Z,2.65
2022-08-17T17:17:22.336Z,2.38
2022-08-17T17:19:38.204Z,2.33
2022-08-17T17:21:49.689Z,1.90
2022-08-17T17:23:59.825Z,2.40
2022-08-17T17:26:14.679Z,2.20
2022-08-17T17:28:27.587Z,2.90
2022-08-17T17:30:40.561Z,3.42
2022-08-17T17:32:52.058Z,3.88
2022-08-17T17:35:06.444Z,3.15
2022-08-17T17:37:17.800Z,2.95
2022-08-17T17:39:30.904Z,2.40
2022-08-17T17:41:43.297Z,2.90
2022-08-17T17:43:49.427Z,2.67
2022-08-17T17:46:07.592Z,2.72
2022-08-17T17:48:26.565Z,2.30
2022-08-17T17:50:39.993Z,2.00
2022-08-17T17:52:54.544Z,2.40
2022-08-17T17:55:09.165Z,2.70
2022-08-17T17:57:24.679Z,3.28
2022-08-17T18:01:47.810Z,3.08
2022-08-17T18:04:08.338Z,2.30
2022-08-17T18:06:39.903Z,2.53
2022-08-17T18:09:06.331Z,2.08
2022-08-17T18:11:24.575Z,2.63
2022-08-17T18:13:39.398Z,2.28
2022-08-17T18:15:51.078Z,2.20
2022-08-17T18:18:24.761Z,3.15
2022-08-17T18:20:32.380Z,2.90
2022-08-17T18:22:50.583Z,2.55
2022-08-17T18:24:58.924Z,2.58
2022-08-17T18:27:08.340Z,2.50
2022-08-17T18:29:25.952Z,2.63
2022-08-17T18:31:31.175Z,2.45
2022-08-17T18:33:37.052Z,2.80
2022-08-17T18:35:42.066Z,3.15
2022-08-17T18:37:51.729Z,4.40
2022-08-17T18:39:56.861Z,4.78
2022-08-17T18:42:04.857Z,5.03
2022-08-17T18:44:26.496Z,4.15
2022-08-17T18:46:35.311Z,3.45
2022-08-17T18:48:59.096Z,3.58
2022-08-17T18:51:26.363Z,4.72
2022-08-17T18:54:12.079Z,4.53
2022-08-17T18:56:35.807Z,4.70
2022-08-17T18:58:40.757Z,4.68
2022-08-17T19:02:54.760Z,4.55
2022-08-17T19:05:03.950Z,4.82
2022-08-17T19:07:13.278Z,4.85
2022-08-17T19:09:35.513Z,3.58
2022-08-17T19:11:42.045Z,3.67
2022-08-17T19:13:54.584Z,3.17
2022-08-17T19:16:15.070Z,3.47
2022-08-17T19:18:26.983Z,4.72
2022-08-17T19:20:35.415Z,3.85
2022-08-17T19:22:51.913Z,4.20
2022-08-17T19:25:12.171Z,4.28
2022-08-17T19:27:25.523Z,3.70
2022-08-17T19:29:45.928Z,4.53
2022-08-17T19:31:51.102Z,3.92
2022-08-17T19:33:57.013Z,4.43
2022-08-17T19:36:09.885Z,4.10
2022-08-17T19:38:27.812Z,4.38
2022-08-17T19:40:52.987Z,4.05
2022-08-17T19:45:17.571Z,3.88
2022-08-17T19:47:53.704Z,3.88
2022-08-17T19:50:05.816Z,3.28
2022-08-17T19:52:30.958Z,4.45
2022-08-17T19:54:43.272Z,3.40
2022-08-17T19:56:57.985Z,3.40
2022-08-17T19:59:12.751Z,3.50
2022-08-17T20:01:23.444Z,3.00
2022-08-17T20:03:34.863Z,3.60
2022-08-17T20:06:01.435Z,3.80
2022-08-17T20:08:14.833Z,4.45
2022-08-17T20:10:29.067Z,4.05
2022-08-17T20:12:39.504Z,4.20
2022-08-17T20:14:53.594Z,3.72
2022-08-17T20:17:02.748Z,4.13
2022-08-17T20:19:11.224Z,3.70
2022-08-17T20:21:21.127Z,3.38
2022-08-17T20:23:48.364Z,3.30
2022-08-17T20:26:00.945Z,3.35
2022-08-17T20:28:27.980Z,3.15
2022-08-17T20:30:40.379Z,2.97
2022-08-17T20:32:55.543Z,3.45
2022-08-17T20:35:11.428Z,3.85
2022-08-17T20:37:30.782Z,4.28
2022-08-17T20:39:39.913Z,4.78
2022-08-17T20:42:07.823Z,3.20
2022-08-17T20:44:34.729Z,4.40
2022-08-17T20:47:04.029Z,11.38
2022-08-17T20:49:23.552Z,14.10
2022-08-17T20:51:38.651Z,8.98
2022-08-17T20:54:09.566Z,7.57
2022-08-17T20:56:34.457Z,5.60
2022-08-17T20:58:47.273Z,5.38
2022-08-17T21:01:13.951Z,5.65
2022-08-17T21:03:54.271Z,5.03
2022-08-17T21:06:03.624Z,5.28
2022-08-17T21:08:22.237Z,5.40
2022-08-17T21:10:38.342Z,4.75
2022-08-17T21:12:48.080Z,4.35
2022-08-17T21:15:04.868Z,4.50
2022-08-17T21:17:38.200Z,4.28
2022-08-17T21:20:10.977Z,4.10
2022-08-17T21:22:31.219Z,4.78
2022-08-17T21:24:46.340Z,4.65
2022-08-17T21:27:04.582Z,4.47
2022-08-17T21:29:29.935Z,4.47
2022-08-17T21:31:39.283Z,4.78
2022-08-17T21:34:21.648Z,4.28
2022-08-17T21:36:29.981Z,3.65
2022-08-17T21:38:39.083Z,4.70
2022-08-17T21:40:50.108Z,4.68
2022-08-17T21:42:58.281Z,4.75
2022-08-17T21:45:12.355Z,4.57
2022-08-17T21:47:24.692Z,4.18
2022-08-17T21:49:36.667Z,4.45
2022-08-17T21:51:47.273Z,4.72
2022-08-17T21:53:55.937Z,4.43
2022-08-17T21:56:00.965Z,4.47
2022-08-17T22:00:29.514Z,4.35
2022-08-17T22:02:37.207Z,4.35
2022-08-17T22:04:45.961Z,4.18
2022-08-17T22:06:57.308Z,3.72
2022-08-17T22:09:21.820Z,3.70
2022-08-17T22:11:26.868Z,4.43
2022-08-17T22:15:39.921Z,4.40
2022-08-17T22:17:47.671Z,3.60
2022-08-17T22:19:57.772Z,3.40
2022-08-17T22:22:06.409Z,3.53
2022-08-17T22:24:21.686Z,3.45
2022-08-17T22:26:29.022Z,3.95
2022-08-17T22:28:42.883Z,3.83
2022-08-17T22:31:04.399Z,3.75
2022-08-17T22:33:39.721Z,3.95
2022-08-17T22:35:48.015Z,3.95
2022-08-17T22:37:50.569Z,2.88
2022-08-17T22:40:02.363Z,3.15
2022-08-17T22:42:08.562Z,3.40
2022-08-17T22:44:24.210Z,4.00
2022-08-17T22:48:34.241Z,2.97
2022-08-17T22:50:42.117Z,2.80
2022-08-17T22:53:12.282Z,3.40
2022-08-17T22:55:31.900Z,3.50
2022-08-17T22:57:50.242Z,3.67
2022-08-17T22:59:57.612Z,3.90
2022-08-17T23:02:25.763Z,3.40
2022-08-17T23:04:36.382Z,3.03
2022-08-17T23:06:43.198Z,3.03
2022-08-17T23:08:54.885Z,2.65
2022-08-17T23:11:01.252Z,3.10
2022-08-17T23:13:06.617Z,3.45
2022-08-17T23:15:15.813Z,3.20
2022-08-17T23:17:21.039Z,3.15
2022-08-17T23:19:26.494Z,2.78
2022-08-17T23:21:32.324Z,3.00
2022-08-17T23:23:42.073Z,2.70
2022-08-17T23:25:49.746Z,2.78
2022-08-17T23:27:54.590Z,2.90
2022-08-17T23:29:59.525Z,3.40
2022-08-17T23:32:04.938Z,3.53
2022-08-17T23:34:14.735Z,3.60
2022-08-17T23:36:19.857Z,3.20
2022-08-17T23:38:27.187Z,3.58
2022-08-17T23:40:32.776Z,3.30
2022-08-17T23:42:46.312Z,3.88
2022-08-17T23:44:52.310Z,3.33
2022-08-17T23:49:03.317Z,3.95
2022-08-17T23:51:12.303Z,3.65
2022-08-17T23:53:17.786Z,3.78
2022-08-17T23:55:22.736Z,3.53
2022-08-17T23:57:33.450Z,2.88
2022-08-17T23:59:43.957Z,3.42
